Lloydminster, Canada
Current Conditions -  °F | °C
As of 11:00 AM on Monday 22 Dec 2014 (Local Time) from CYLL Reporting Station
Haze Haze  
Wind Chill: 15°   Ceiling: 1700
Heat Index: 21°   Visibility: 5mi
Dew Point: 19°   Wind: 5mph
Humidity: 93%   Direction: 290°WNW
Pressure: 29.78"   Gusts: NA
Location:  53.32°N, 110.07°W
Report Text: CYLL 221800Z 29004KT 210V310 5SM BR OVC017 M06/M07 A2978 RMK SC8 SLP128
Loading
Personal Weather Stations






























Interactive Weather Map New forecast layout! Learn more

10-Day Weather Forecast

Advertisements
Track Severe Weather on mobile